createdAt,value
2023-05-19T00:03:57.402Z,7.80
2023-05-19T00:09:02.926Z,7.70
2023-05-19T00:14:08.305Z,7.60
2023-05-19T00:19:10.286Z,7.60
2023-05-19T00:24:12.515Z,7.50
2023-05-19T00:29:15.750Z,7.40
2023-05-19T00:34:17.614Z,7.30
2023-05-19T00:39:19.315Z,7.30
2023-05-19T00:44:22.384Z,7.20
2023-05-19T00:49:24.219Z,7.10
2023-05-19T00:54:25.945Z,7.10
2023-05-19T00:59:29.002Z,7.20
2023-05-19T01:04:31.932Z,7.20
2023-05-19T01:09:33.855Z,7.00
2023-05-19T01:14:37.055Z,6.80
2023-05-19T01:19:52.687Z,6.90
2023-05-19T01:25:39.424Z,6.70
2023-05-19T01:30:44.411Z,6.60
2023-05-19T01:35:47.348Z,6.60
2023-05-19T01:40:51.308Z,6.50
2023-05-19T01:45:55.515Z,6.40
2023-05-19T01:50:57.331Z,6.30
2023-05-19T01:55:59.419Z,6.30
2023-05-19T02:01:08.798Z,6.20
2023-05-19T02:06:22.179Z,6.20
2023-05-19T02:11:31.236Z,6.30
2023-05-19T02:16:36.303Z,6.30
2023-05-19T02:21:37.907Z,6.40
2023-05-19T02:26:39.656Z,6.30
2023-05-19T02:31:42.700Z,6.30
2023-05-19T02:36:44.744Z,6.20
2023-05-19T02:41:46.600Z,6.20
2023-05-19T02:46:49.992Z,6.10
2023-05-19T02:51:51.750Z,6.10
2023-05-19T02:56:53.464Z,6.10
2023-05-19T03:01:59.962Z,6.10
2023-05-19T03:07:01.756Z,6.10
2023-05-19T03:12:04.065Z,6.00
2023-05-19T03:17:07.193Z,6.00
2023-05-19T03:22:09.189Z,6.00
2023-05-19T03:27:12.049Z,5.90
2023-05-19T03:32:15.120Z,5.80
2023-05-19T03:37:16.874Z,5.60
2023-05-19T03:42:18.636Z,5.50
2023-05-19T03:47:21.662Z,5.60
2023-05-19T03:52:23.347Z,5.70
2023-05-19T03:57:25.175Z,5.70
2023-05-19T04:02:28.457Z,5.80
2023-05-19T04:07:30.495Z,5.60
2023-05-19T04:12:32.198Z,5.50
2023-05-19T04:17:39.649Z,5.60
2023-05-19T04:22:45.372Z,5.70
2023-05-19T04:27:48.332Z,6.00
2023-05-19T04:32:52.276Z,6.10
2023-05-19T04:37:58.597Z,6.20
2023-05-19T04:43:02.992Z,6.10
2023-05-19T04:48:12.248Z,6.20
2023-05-19T04:53:18.146Z,6.20
2023-05-19T04:58:24.190Z,6.20
2023-05-19T05:03:38.178Z,6.20
2023-05-19T05:08:43.170Z,6.40
2023-05-19T05:13:51.448Z,6.60
2023-05-19T05:19:11.944Z,6.80
2023-05-19T05:24:34.983Z,7.00
2023-05-19T05:29:42.111Z,7.20
2023-05-19T05:34:52.295Z,7.30
2023-05-19T05:40:08.059Z,7.60
2023-05-19T05:45:13.548Z,7.90
2023-05-19T05:50:29.019Z,8.30
2023-05-19T05:55:40.496Z,8.90
2023-05-19T06:01:01.244Z,9.30
2023-05-19T06:06:07.332Z,9.60
2023-05-19T06:11:16.437Z,9.90
2023-05-19T06:16:20.147Z,10.30
2023-05-19T06:21:36.376Z,10.60
2023-05-19T06:26:54.555Z,10.60
2023-05-19T06:32:27.747Z,10.80
2023-05-19T06:43:02.317Z,11.20
2023-05-19T06:48:11.629Z,11.50
2023-05-19T06:53:28.578Z,11.80
2023-05-19T07:04:47.014Z,12.10
2023-05-19T07:16:05.037Z,12.50
2023-05-19T07:21:18.671Z,12.90
2023-05-19T07:26:48.007Z,12.90
2023-05-19T07:38:12.710Z,12.90
2023-05-19T07:43:38.382Z,13.20
2023-05-19T07:49:15.569Z,13.60
2023-05-19T07:54:26.650Z,13.90
2023-05-19T07:59:28.502Z,14.30
2023-05-19T08:04:30.434Z,14.70
2023-05-19T08:09:33.716Z,15.10
2023-05-19T08:14:35.582Z,15.50
2023-05-19T08:19:38.404Z,16.00
2023-05-19T08:24:41.585Z,16.50
2023-05-19T08:29:43.396Z,16.80
2023-05-19T08:34:45.454Z,17.10
2023-05-19T08:39:48.682Z,17.00
2023-05-19T08:44:53.668Z,17.20
2023-05-19T08:50:04.036Z,17.30
2023-05-19T08:55:13.953Z,17.60
2023-05-19T09:00:16.431Z,17.50
2023-05-19T09:05:19.064Z,17.50
2023-05-19T09:10:22.371Z,17.90
2023-05-19T09:15:27.070Z,18.30
2023-05-19T09:20:30.958Z,18.10
2023-05-19T09:25:34.526Z,17.90
2023-05-19T09:30:36.459Z,18.30
2023-05-19T09:35:38.141Z,18.30
2023-05-19T09:40:41.240Z,18.30
2023-05-19T09:45:43.088Z,18.30
2023-05-19T09:50:45.229Z,18.80
2023-05-19T09:55:48.512Z,18.80
2023-05-19T10:00:50.986Z,18.30
2023-05-19T10:05:53.397Z,18.70
2023-05-19T10:10:59.985Z,18.70
2023-05-19T10:16:02.337Z,18.70
2023-05-19T10:21:05.741Z,19.00
2023-05-19T10:26:10.278Z,19.50
2023-05-19T10:31:17.008Z,19.20
2023-05-19T10:36:35.810Z,19.50
2023-05-19T10:41:46.997Z,19.90
2023-05-19T10:46:51.204Z,20.00
2023-05-19T10:51:55.550Z,19.80
2023-05-19T10:56:58.737Z,19.10
2023-05-19T11:02:03.706Z,18.70
2023-05-19T11:07:05.593Z,18.80
2023-05-19T11:12:09.173Z,19.90
2023-05-19T11:17:14.860Z,20.20
2023-05-19T11:22:18.409Z,20.30
2023-05-19T11:27:24.910Z,20.30
2023-05-19T11:32:32.002Z,20.40
2023-05-19T11:37:35.949Z,20.60
2023-05-19T11:42:39.078Z,20.60
2023-05-19T11:47:56.410Z,20.60
2023-05-19T11:53:03.163Z,20.10
2023-05-19T11:58:06.679Z,20.20
2023-05-19T12:03:09.323Z,20.70
2023-05-19T12:08:11.513Z,20.70
2023-05-19T12:13:15.006Z,20.80
2023-05-19T12:18:16.722Z,20.90
2023-05-19T12:23:18.839Z,20.70
2023-05-19T12:28:21.945Z,20.00
2023-05-19T12:33:24.059Z,19.40
2023-05-19T12:38:25.825Z,19.50
2023-05-19T12:43:29.322Z,19.70
2023-05-19T12:48:31.113Z,20.20
2023-05-19T12:53:33.348Z,20.20
2023-05-19T12:58:36.956Z,19.90
2023-05-19T13:03:41.032Z,19.70
2023-05-19T13:08:42.840Z,20.20
2023-05-19T13:13:45.944Z,19.90
2023-05-19T13:18:47.676Z,21.00
2023-05-19T13:23:49.485Z,21.20
2023-05-19T13:28:52.589Z,20.50
2023-05-19T13:33:54.261Z,20.90
2023-05-19T13:38:56.175Z,21.60
2023-05-19T13:43:59.539Z,21.70
2023-05-19T13:49:01.325Z,20.90
2023-05-19T13:54:03.216Z,20.00
2023-05-19T13:59:06.486Z,19.60
2023-05-19T14:04:08.389Z,19.20
2023-05-19T14:09:12.093Z,19.10
2023-05-19T14:14:15.394Z,19.20
2023-05-19T14:19:17.331Z,19.30
2023-05-19T14:24:19.322Z,19.60
2023-05-19T14:29:22.505Z,20.80
2023-05-19T14:34:24.270Z,20.40
2023-05-19T14:39:26.224Z,20.20
2023-05-19T14:44:32.337Z,19.70
2023-05-19T14:49:34.072Z,19.40
2023-05-19T14:54:38.480Z,19.30
2023-05-19T14:59:42.625Z,19.20
2023-05-19T15:04:44.537Z,19.20
2023-05-19T15:09:46.290Z,19.20
2023-05-19T15:14:49.525Z,19.30
2023-05-19T15:19:51.278Z,19.50
2023-05-19T15:24:53.055Z,19.00
2023-05-19T15:29:56.130Z,18.50
2023-05-19T15:34:58.038Z,18.30
2023-05-19T15:40:00.542Z,18.20
2023-05-19T15:45:04.192Z,18.30
2023-05-19T15:50:06.944Z,18.20
2023-05-19T15:55:09.652Z,18.30
2023-05-19T16:00:14.165Z,18.40
2023-05-19T16:05:18.984Z,18.50
2023-05-19T16:10:20.715Z,18.40
2023-05-19T16:15:23.846Z,18.50
2023-05-19T16:20:25.609Z,18.70
2023-05-19T16:25:27.526Z,18.60
2023-05-19T16:30:32.815Z,18.60
2023-05-19T16:35:34.817Z,18.80
2023-05-19T16:40:36.796Z,18.80
2023-05-19T16:45:42.939Z,18.70
2023-05-19T16:50:47.804Z,18.70
2023-05-19T16:55:49.575Z,18.50
2023-05-19T17:00:53.305Z,18.30
2023-05-19T17:05:55.202Z,18.20
2023-05-19T17:10:56.948Z,18.20
2023-05-19T17:16:03.134Z,18.30
2023-05-19T17:21:04.999Z,18.40
2023-05-19T17:26:06.739Z,18.50
2023-05-19T17:31:13.636Z,18.30
2023-05-19T17:36:18.425Z,18.10
2023-05-19T17:41:20.229Z,17.80
2023-05-19T17:46:23.410Z,17.70
2023-05-19T17:51:25.700Z,17.60
2023-05-19T17:56:29.747Z,17.50
2023-05-19T18:01:33.485Z,17.40
2023-05-19T18:06:37.320Z,17.40
2023-05-19T18:11:39.052Z,17.30
2023-05-19T18:16:42.381Z,17.20
2023-05-19T18:21:44.258Z,17.20
2023-05-19T18:26:45.942Z,17.20
2023-05-19T18:31:49.194Z,17.10
2023-05-19T18:36:50.978Z,17.10
2023-05-19T18:41:52.710Z,17.00
2023-05-19T18:46:55.912Z,16.80
2023-05-19T18:51:57.774Z,16.80
2023-05-19T18:56:59.642Z,16.80
2023-05-19T19:02:02.704Z,16.60
2023-05-19T19:07:05.560Z,16.70
2023-05-19T19:17:25.001Z,16.40
2023-05-19T19:22:26.925Z,16.40
2023-05-19T19:27:28.758Z,16.30
2023-05-19T19:32:31.988Z,16.20
2023-05-19T19:37:33.736Z,16.20
2023-05-19T19:42:35.580Z,16.10
2023-05-19T19:47:38.735Z,16.00
2023-05-19T19:52:40.477Z,16.10
2023-05-19T19:57:42.691Z,16.00
2023-05-19T20:07:53.408Z,15.80
2023-05-19T20:12:55.346Z,15.80
2023-05-19T20:17:58.566Z,15.90
2023-05-19T20:23:03.261Z,15.70
2023-05-19T20:28:05.415Z,15.80
2023-05-19T20:33:08.672Z,15.80
2023-05-19T20:38:10.674Z,15.70
2023-05-19T20:43:12.687Z,15.60
2023-05-19T20:48:16.191Z,15.60
2023-05-19T20:53:19.501Z,15.50
2023-05-19T20:58:23.673Z,15.50
2023-05-19T21:03:27.142Z,15.60
2023-05-19T21:08:29.560Z,15.40
2023-05-19T21:13:31.671Z,15.40
2023-05-19T21:18:34.950Z,15.30
2023-05-19T21:23:36.701Z,15.30
2023-05-19T21:28:38.424Z,15.20
2023-05-19T21:33:41.644Z,15.20
2023-05-19T21:38:43.410Z,15.10
2023-05-19T21:43:45.339Z,15.00
2023-05-19T21:48:49.520Z,15.00
2023-05-19T21:53:51.264Z,14.90
2023-05-19T21:58:52.959Z,14.70
2023-05-19T22:03:58.022Z,14.50
2023-05-19T22:08:59.907Z,14.50
2023-05-19T22:14:01.979Z,14.30
2023-05-19T22:19:24.738Z,14.30
2023-05-19T22:24:28.796Z,14.20
2023-05-19T22:29:30.671Z,14.10
2023-05-19T22:34:33.929Z,14.20
2023-05-19T22:39:39.080Z,14.10
2023-05-19T22:44:40.880Z,14.10
2023-05-19T22:49:43.968Z,14.10
2023-05-19T22:54:45.679Z,14.00
2023-05-19T22:59:47.453Z,13.90
2023-05-19T23:04:50.519Z,14.00
2023-05-19T23:09:52.291Z,13.90
2023-05-19T23:14:54.005Z,14.00
2023-05-19T23:19:57.239Z,13.90
2023-05-19T23:24:59.151Z,13.70
2023-05-19T23:30:00.943Z,13.80
2023-05-19T23:35:15.640Z,13.70
2023-05-19T23:40:17.406Z,13.80
2023-05-19T23:45:19.224Z,13.70
2023-05-19T23:50:22.275Z,13.60
2023-05-19T23:55:24.068Z,13.40
